Time;durP1;ratioP1;P1;durP2;ratioP2;P2;SDS_P1;SDS_P2;PMS_P1;PMS_P2;Temp;Humidity;BMP_temperature;BMP_pressure;BME280_temperature;BME280_humidity;BME280_pressure;Samples;Min_cycle;Max_cycle;Signal;HPM_P1;HPM_P2
2022/09/30 00:00:30;;;;;;;9.75;8.83;;;;;;;15.68;100.00;99098.12;1740274;81;21602;-77
2022/09/30 00:02:58;;;;;;;13.32;9.60;;;;;;;15.73;100.00;99112.72;1717258;82;21538;-76
2022/09/30 00:05:24;;;;;;;9.18;8.20;;;;;;;15.74;100.00;99106.98;1709493;83;21602;-79
2022/09/30 00:07:51;;;;;;;10.32;9.33;;;;;;;15.79;100.00;99115.03;1709554;83;21048;-81
2022/09/30 00:10:18;;;;;;;11.68;10.48;;;;;;;15.85;100.00;99121.17;1719984;81;20998;-86
2022/09/30 00:12:45;;;;;;;11.10;10.05;;;;;;;15.80;100.00;99112.58;1748070;81;21461;-83
2022/09/30 00:15:15;;;;;;;11.03;9.10;;;;;;;15.74;100.00;99109.69;1741798;81;20927;-82
2022/09/30 00:17:43;;;;;;;8.65;7.85;;;;;;;15.73;100.00;99114.08;1719770;82;21038;-84
2022/09/30 00:20:10;;;;;;;10.70;7.70;;;;;;;15.71;100.00;99113.01;1722420;82;21185;-74
2022/09/30 00:22:38;;;;;;;9.15;7.67;;;;;;;15.73;100.00;99117.56;1717701;82;21019;-79
2022/09/30 00:25:06;;;;;;;8.08;7.25;;;;;;;15.78;100.00;99116.13;1719333;81;20978;-76
2022/09/30 00:27:32;;;;;;;9.70;7.35;;;;;;;15.81;100.00;99110.67;1758538;81;21058;-77
2022/09/30 00:29:59;;;;;;;12.55;8.63;;;;;;;15.79;100.00;99110.16;1754175;81;21018;-74
2022/09/30 00:32:25;;;;;;;10.48;7.55;;;;;;;15.77;100.00;99105.59;1737491;82;21259;-74
2022/09/30 00:34:52;;;;;;;10.65;7.47;;;;;;;15.82;100.00;99104.96;1715506;83;20932;-77
2022/09/30 00:37:18;;;;;;;10.70;8.50;;;;;;;15.88;100.00;99107.01;1738397;82;21042;-75
2022/09/30 00:39:44;;;;;;;9.10;7.05;;;;;;;15.85;100.00;99104.36;1739160;81;21061;-79
2022/09/30 00:42:13;;;;;;;8.70;7.03;;;;;;;15.90;100.00;99112.41;1746642;81;21015;-78
2022/09/30 00:44:50;;;;;;;8.00;7.15;;;;;;;15.88;100.00;99118.66;1737058;82;21099;-77
2022/09/30 00:47:31;;;;;;;6.83;5.90;;;;;;;15.87;100.00;99116.27;1735022;82;20974;-79
2022/09/30 00:50:02;;;;;;;6.20;5.70;;;;;;;15.91;100.00;99126.77;1739441;82;21071;-85
2022/09/30 00:52:29;;;;;;;6.25;5.65;;;;;;;15.91;100.00;99119.98;1724453;82;20982;-87
2022/09/30 00:54:57;;;;;;;7.78;6.28;;;;;;;15.91;100.00;99124.05;1724166;82;21049;-86
2022/09/30 00:57:24;;;;;;;6.28;5.45;;;;;;;15.87;100.00;99124.41;1670391;84;21178;-88
2022/09/30 00:59:52;;;;;;;9.13;6.65;;;;;;;15.86;100.00;99136.34;1720712;83;21614;-88
2022/09/30 01:02:20;;;;;;;6.60;6.00;;;;;;;15.84;100.00;99133.11;1720406;82;21141;-91
2022/09/30 01:04:47;;;;;;;6.67;6.08;;;;;;;15.87;100.00;99131.19;1717309;83;21067;-89
2022/09/30 01:07:15;;;;;;;9.45;6.58;;;;;;;15.87;100.00;99140.67;1727207;82;21517;-90
2022/09/30 01:09:43;;;;;;;8.15;5.97;;;;;;;15.86;100.00;99148.00;1735310;82;21498;-89
2022/09/30 01:12:15;;;;;;;7.75;6.42;;;;;;;15.84;100.00;99146.67;1740684;82;20968;-89
2022/09/30 01:14:42;;;;;;;7.40;5.55;;;;;;;15.82;100.00;99145.64;1737047;81;21030;-88
2022/09/30 01:17:35;;;;;;;7.95;6.33;;;;;;;15.86;100.00;99151.27;1752299;81;21054;-90
2022/09/30 01:20:28;;;;;;;7.03;6.30;;;;;;;15.89;100.00;99147.95;1720661;82;21066;-89
2022/09/30 01:23:33;;;;;;;9.05;7.17;;;;;;;15.97;100.00;99150.77;1748540;81;21785;-80
2022/09/30 01:26:12;;;;;;;6.65;6.05;;;;;;;15.90;100.00;99153.08;1713759;83;21575;-85
2022/09/30 01:29:02;;;;;;;6.90;5.92;;;;;;;15.81;100.00;99145.38;1696349;82;20992;-84
2022/09/30 01:31:53;;;;;;;5.78;5.25;;;;;;;15.81;100.00;99144.02;1700190;82;20962;-85
2022/09/30 01:34:44;;;;;;;6.45;5.85;;;;;;;15.82;100.00;99146.19;1722323;83;20959;-81
2022/09/30 01:37:34;;;;;;;5.33;4.83;;;;;;;15.85;100.00;99140.97;1747789;82;21130;-84
2022/09/30 01:40:09;;;;;;;7.47;6.00;;;;;;;15.89;100.00;99137.91;1709378;83;21497;-82
2022/09/30 01:43:02;;;;;;;6.72;5.12;;;;;;;15.89;100.00;99143.33;1736928;81;21509;-82
2022/09/30 01:45:43;;;;;;;5.37;4.87;;;;;;;15.86;100.00;99137.16;1739439;81;21065;-83
2022/09/30 01:48:36;;;;;;;7.35;6.25;;;;;;;15.91;100.00;99145.75;1742604;81;21037;-82
2022/09/30 01:51:10;;;;;;;6.93;5.30;;;;;;;15.94;100.00;99138.36;1742817;82;22007;-85
2022/09/30 01:53:46;;;;;;;6.60;5.15;;;;;;;15.92;100.00;99139.23;1742364;82;21110;-81
2022/09/30 01:56:24;;;;;;;6.28;5.72;;;;;;;15.88;100.00;99144.97;1666502;84;21561;-82
2022/09/30 01:59:14;;;;;;;6.53;4.78;;;;;;;15.84;100.00;99143.41;1746567;80;21054;-80
2022/09/30 02:01:55;;;;;;;6.03;5.53;;;;;;;15.87;100.00;99144.20;1720595;83;21053;-82
2022/09/30 02:04:30;;;;;;;7.53;5.70;;;;;;;15.85;100.00;99150.45;1716244;82;21114;-81
2022/09/30 02:07:00;;;;;;;7.40;5.58;;;;;;;15.82;100.00;99143.47;1720403;83;20981;-81
2022/09/30 02:09:31;;;;;;;6.03;5.42;;;;;;;15.83;100.00;99151.84;1748536;82;20914;-78
2022/09/30 02:11:59;;;;;;;6.97;6.10;;;;;;;15.83;100.00;99149.13;1695323;83;21270;-78
2022/09/30 02:14:42;;;;;;;9.48;6.15;;;;;;;15.81;100.00;99154.06;1729784;81;21054;-81
2022/09/30 02:17:22;;;;;;;5.33;4.83;;;;;;;15.75;100.00;99149.81;1747493;81;21257;-80
2022/09/30 02:20:02;;;;;;;6.00;5.35;;;;;;;15.76;100.00;99152.23;1711989;83;21028;-78
2022/09/30 02:22:42;;;;;;;7.15;5.25;;;;;;;15.76;100.00;99155.50;1742725;82;21550;-78
2022/09/30 02:25:05;;;;;;;6.85;6.15;;;;;;;15.79;100.00;99146.76;1741750;82;21037;-79
2022/09/30 02:27:41;;;;;;;8.63;5.65;;;;;;;15.77;100.00;99145.72;1728863;81;21582;-81
2022/09/30 02:30:10;;;;;;;5.97;5.47;;;;;;;15.76;100.00;99145.46;1711295;83;21146;-82
2022/09/30 02:32:54;;;;;;;8.43;5.85;;;;;;;15.74;100.00;99146.84;1724245;83;21053;-82
2022/09/30 02:35:27;;;;;;;;;;;;;;;15.82;100.00;99147.54;1735923;81;21129;-83
2022/09/30 02:38:21;;;;;;;7.83;6.08;;;;;;;15.87;100.00;99157.75;1747177;82;20143;-81
2022/09/30 02:40:55;;;;;;;7.87;6.53;;;;;;;15.91;100.00;99153.89;1749624;80;21054;-80
2022/09/30 02:43:22;;;;;;;6.92;5.80;;;;;;;15.94;100.00;99154.64;1769338;80;21538;-82
2022/09/30 02:45:54;;;;;;;8.33;6.70;;;;;;;15.96;100.00;99147.02;1769110;81;20950;-81
2022/09/30 02:48:48;;;;;;;8.88;6.72;;;;;;;15.98;100.00;99144.80;1766242;80;21060;-82
2022/09/30 02:51:42;;;;;;;7.12;6.37;;;;;;;15.97;100.00;99153.48;1748216;81;21480;-83
2022/09/30 02:54:24;;;;;;;9.45;6.20;;;;;;;16.01;100.00;99157.23;1720709;83;21017;-82
2022/09/30 02:56:56;;;;;;;8.20;7.17;;;;;;;16.06;100.00;99161.77;1750477;80;21715;-85
2022/09/30 02:59:22;;;;;;;10.13;6.45;;;;;;;16.05;100.00;99156.08;1755309;80;21612;-85
2022/09/30 03:01:50;;;;;;;9.03;7.67;;;;;;;16.08;100.00;99154.92;1742472;82;20970;-84
2022/09/30 03:04:23;;;;;;;12.40;7.45;;;;;;;16.04;100.00;99152.56;1742329;82;21029;-84
2022/09/30 03:06:51;;;;;;;7.87;7.00;;;;;;;16.01;100.00;99157.78;1742520;82;21057;-83
2022/09/30 03:09:17;;;;;;;14.10;7.97;;;;;;;15.97;100.00;99164.33;1744698;82;21091;-84
2022/09/30 03:11:46;;;;;;;8.50;7.10;;;;;;;15.92;100.00;99166.36;1746369;81;20967;-83
2022/09/30 03:14:55;;;;;;;9.30;7.90;;;;;;;15.92;100.00;99171.78;1745977;80;21141;-84
2022/09/30 03:17:53;;;;;;;8.80;7.17;;;;;;;15.94;100.00;99161.42;1731677;82;21011;-85
2022/09/30 03:20:38;;;;;;;9.70;7.70;;;;;;;15.89;100.00;99158.80;1724520;82;21059;-85
2022/09/30 03:23:35;;;;;;;9.05;7.37;;;;;;;15.80;100.00;99162.74;1731631;82;21013;-84
2022/09/30 03:26:27;;;;;;;9.68;7.75;;;;;;;15.77;100.00;99158.47;1730929;82;21010;-85
2022/09/30 03:29:07;;;;;;;10.45;8.25;;;;;;;15.78;100.00;99165.52;1733528;81;20998;-86
2022/09/30 03:31:51;;;;;;;8.23;6.95;;;;;;;15.79;100.00;99166.55;1715079;82;21605;-85
2022/09/30 03:34:32;;;;;;;13.30;7.40;;;;;;;15.83;100.00;99176.24;1715837;82;21060;-79
2022/09/30 03:37:29;;;;;;;11.28;8.48;;;;;;;15.82;100.00;99186.31;1684844;84;21546;-79
2022/09/30 03:40:28;;;;;;;8.55;7.70;;;;;;;15.79;100.00;99184.72;1699281;83;21569;-79
2022/09/30 03:43:22;;;;;;;8.88;8.03;;;;;;;15.81;100.00;99187.95;1707492;83;22281;-79
2022/09/30 03:46:22;;;;;;;8.73;7.20;;;;;;;15.87;100.00;99179.45;1716714;83;21047;-80
2022/09/30 03:48:52;;;;;;;10.25;7.37;;;;;;;15.93;100.00;99184.22;1685698;83;21100;-80
2022/09/30 03:51:18;;;;;;;10.30;8.50;;;;;;;15.85;100.00;99187.61;1701714;83;21143;-80
2022/09/30 03:53:48;;;;;;;10.45;9.38;;;;;;;15.80;100.00;99187.69;1715883;83;21108;-81
2022/09/30 03:56:14;;;;;;;10.53;8.20;;;;;;;15.75;100.00;99194.55;1715673;82;21065;-85
2022/09/30 03:58:46;;;;;;;10.25;9.05;;;;;;;15.69;100.00;99190.56;1733702;82;21103;-82
2022/09/30 04:01:22;;;;;;;10.93;8.98;;;;;;;15.68;100.00;99194.95;1734191;82;21013;-79
2022/09/30 04:03:51;;;;;;;10.03;8.60;;;;;;;15.67;100.00;99200.11;1695896;83;21190;-80
2022/09/30 04:06:20;;;;;;;;;;;;;;;15.69;100.00;99199.25;1718420;83;21544;-79
2022/09/30 04:08:48;;;;;;;12.78;9.98;;;;;;;15.75;100.00;99209.47;1722559;83;20188;-79
2022/09/30 04:11:16;;;;;;;9.75;8.75;;;;;;;15.75;100.00;99206.20;1712510;83;21609;-81
2022/09/30 04:13:45;;;;;;;11.57;10.10;;;;;;;15.81;100.00;99215.07;1715996;83;21056;-78
2022/09/30 04:16:13;;;;;;;10.58;9.50;;;;;;;15.80;100.00;99214.27;1710724;82;21035;-81
2022/09/30 04:18:39;;;;;;;11.88;9.18;;;;;;;15.80;100.00;99212.09;1714471;82;21035;-83
2022/09/30 04:21:12;;;;;;;15.00;9.43;;;;;;;15.85;100.00;99220.96;1714611;83;21464;-83
2022/09/30 04:23:39;;;;;;;10.30;7.95;;;;;;;15.90;100.00;99218.72;1715707;83;20971;-83
2022/09/30 04:26:09;;;;;;;12.23;10.13;;;;;;;15.94;100.00;99230.03;1718119;82;21548;-84
2022/09/30 04:28:36;;;;;;;12.40;9.48;;;;;;;15.97;100.00;99232.72;1726805;82;21176;-77
2022/09/30 04:31:05;;;;;;;16.95;10.18;;;;;;;16.00;100.00;99233.47;1715531;82;21536;-80
2022/09/30 04:33:34;;;;;;;10.75;9.08;;;;;;;15.96;100.00;99245.47;1713522;82;21010;-80
2022/09/30 04:36:01;;;;;;;14.30;11.12;;;;;;;15.91;100.00;99248.27;1684020;84;20992;-82
2022/09/30 04:38:28;;;;;;;10.63;9.53;;;;;;;15.86;100.00;99257.03;1669643;85;21111;-80
2022/09/30 04:40:56;;;;;;;21.85;13.90;;;;;;;15.80;100.00;99255.48;1716490;83;21558;-82
2022/09/30 04:43:24;;;;;;;13.40;11.50;;;;;;;15.72;100.00;99254.80;1714110;82;21242;-78
2022/09/30 04:45:51;;;;;;;11.80;10.08;;;;;;;15.61;100.00;99259.56;1708264;82;21195;-81
2022/09/30 04:48:21;;;;;;;13.83;11.85;;;;;;;15.56;100.00;99256.38;1687333;83;21297;-81
2022/09/30 04:50:50;;;;;;;13.25;10.03;;;;;;;15.57;100.00;99255.28;1709995;83;21058;-81
2022/09/30 04:53:17;;;;;;;14.03;9.55;;;;;;;15.58;100.00;99258.26;1715029;83;21707;-83
2022/09/30 04:55:44;;;;;;;11.18;9.90;;;;;;;15.59;100.00;99254.97;1713800;83;21040;-80
2022/09/30 04:58:10;;;;;;;18.10;9.80;;;;;;;15.60;100.00;99260.11;1713392;83;21569;-85
2022/09/30 05:00:37;;;;;;;13.40;10.78;;;;;;;15.62;100.00;99256.56;1693027;83;21078;-80
2022/09/30 05:03:05;;;;;;;101.72;84.47;;;;;;;15.62;100.00;99242.20;1708091;82;20929;-81
2022/09/30 05:05:34;;;;;;;23.25;20.37;;;;;;;15.61;100.00;99242.75;1715435;83;22058;-82
2022/09/30 05:08:02;;;;;;;16.77;13.93;;;;;;;15.65;100.00;99253.80;1716675;83;21673;-84
2022/09/30 05:10:30;;;;;;;15.30;13.25;;;;;;;15.67;100.00;99259.75;1716224;82;21075;-85
2022/09/30 05:12:57;;;;;;;20.82;13.15;;;;;;;15.66;100.00;99261.66;1714646;82;20965;-78
2022/09/30 05:15:24;;;;;;;18.98;12.70;;;;;;;15.65;100.00;99268.17;1729535;81;21002;-81
2022/09/30 05:17:51;;;;;;;14.47;12.88;;;;;;;15.71;100.00;99267.55;1749198;82;21759;-86
2022/09/30 05:20:18;;;;;;;18.92;12.73;;;;;;;15.75;100.00;99263.70;1739899;82;21561;-81
2022/09/30 05:22:45;;;;;;;17.40;13.13;;;;;;;15.78;100.00;99265.84;1733219;82;21496;-81
2022/09/30 05:25:13;;;;;;;17.37;15.50;;;;;;;15.80;100.00;99261.72;1718010;82;21484;-82
2022/09/30 05:27:41;;;;;;;18.12;13.22;;;;;;;15.85;100.00;99263.00;1732384;82;21492;-82
2022/09/30 05:30:09;;;;;;;20.57;13.83;;;;;;;15.86;100.00;99259.19;1741136;81;21135;-81
2022/09/30 05:32:37;;;;;;;18.07;13.30;;;;;;;15.83;100.00;99270.61;1723416;82;21617;-80
2022/09/30 05:35:04;;;;;;;16.57;12.28;;;;;;;15.85;100.00;99275.20;1704368;84;20976;-80
2022/09/30 05:37:32;;;;;;;17.00;14.47;;;;;;;15.89;100.00;99279.48;1688797;84;21050;-84
2022/09/30 05:39:59;;;;;;;16.10;12.73;;;;;;;15.92;100.00;99278.91;1702007;82;21618;-83
2022/09/30 05:42:26;;;;;;;16.50;14.58;;;;;;;15.96;100.00;99288.06;1731602;82;21136;-82
2022/09/30 05:44:54;;;;;;;22.32;15.28;;;;;;;15.96;100.00;99277.21;1731902;81;21010;-82
2022/09/30 05:47:20;;;;;;;17.67;14.58;;;;;;;16.06;100.00;99277.86;1732207;82;21527;-79
2022/09/30 05:49:53;;;;;;;18.65;14.68;;;;;;;16.10;100.00;99279.43;1732484;82;21302;-85
2022/09/30 05:52:23;;;;;;;19.67;14.33;;;;;;;16.07;100.00;99278.64;1712523;83;21130;-83
2022/09/30 05:54:51;;;;;;;15.80;13.68;;;;;;;16.02;100.00;99280.08;1704604;84;22504;-83
2022/09/30 05:57:18;;;;;;;14.33;11.80;;;;;;;16.02;100.00;99278.72;1688472;84;20972;-86
2022/09/30 05:59:49;;;;;;;18.30;12.68;;;;;;;16.02;100.00;99284.15;1718503;82;21058;-83
2022/09/30 06:02:16;;;;;;;17.32;12.78;;;;;;;16.06;100.00;99296.86;1737666;82;20980;-86
2022/09/30 06:04:44;;;;;;;15.60;13.45;;;;;;;16.12;100.00;99291.58;1732561;82;21037;-84
2022/09/30 06:07:13;;;;;;;15.20;13.62;;;;;;;16.12;100.00;99297.01;1733403;82;21001;-82
2022/09/30 06:09:42;;;;;;;14.23;11.90;;;;;;;16.17;100.00;99304.81;1717318;82;21112;-84
2022/09/30 06:12:09;;;;;;;19.05;14.00;;;;;;;16.18;100.00;99305.07;1714209;83;21532;-86
2022/09/30 06:14:39;;;;;;;16.65;13.15;;;;;;;16.11;100.00;99308.17;1726532;82;21023;-84
2022/09/30 06:17:06;;;;;;;20.55;15.43;;;;;;;16.06;100.00;99313.68;1731869;82;21032;-81
2022/09/30 06:19:32;;;;;;;17.67;14.93;;;;;;;16.09;100.00;99321.22;1720712;82;22184;-81
2022/09/30 06:21:59;;;;;;;16.70;14.58;;;;;;;16.22;100.00;99328.60;1717209;83;21012;-84
2022/09/30 06:24:26;;;;;;;15.30;13.60;;;;;;;16.27;100.00;99333.14;1722066;83;21039;-84
2022/09/30 06:26:54;;;;;;;19.95;16.73;;;;;;;16.21;100.00;99334.34;1720122;83;21032;-81
2022/09/30 06:29:20;;;;;;;26.45;16.17;;;;;;;16.15;100.00;99332.26;1726127;82;21051;-81
2022/09/30 06:31:47;;;;;;;21.05;15.40;;;;;;;16.17;100.00;99328.68;1747805;82;21131;-82
2022/09/30 06:34:14;;;;;;;17.02;15.18;;;;;;;16.24;100.00;99337.81;1748080;82;20961;-82
2022/09/30 06:36:41;;;;;;;19.05;14.60;;;;;;;16.33;100.00;99334.68;1747804;82;21141;-83
2022/09/30 06:39:08;;;;;;;16.32;14.58;;;;;;;16.41;100.00;99341.59;1744799;82;21645;-82
2022/09/30 06:41:38;;;;;;;21.10;17.07;;;;;;;16.48;100.00;99350.72;1746842;82;21564;-83
2022/09/30 06:44:04;;;;;;;19.37;16.15;;;;;;;16.54;100.00;99341.40;1752720;80;21561;-80
2022/09/30 06:46:33;;;;;;;17.90;15.25;;;;;;;16.53;100.00;99336.52;1768222;80;20965;-83
2022/09/30 06:49:00;;;;;;;19.40;14.95;;;;;;;16.51;100.00;99336.00;1768844;81;21207;-81
2022/09/30 07:07:11;;;;;;;23.85;18.37;;;;;;;16.89;100.00;99346.22;1809313;76;35085;-88
2022/09/30 07:09:37;;;;;;;23.25;19.70;;;;;;;16.90;100.00;99356.53;1787051;80;20984;-87
2022/09/30 07:12:06;;;;;;;25.88;20.55;;;;;;;16.93;100.00;99362.17;1755994;80;21127;-88
2022/09/30 07:14:33;;;;;;;19.98;18.07;;;;;;;16.93;100.00;99373.59;1752539;80;21535;-84
2022/09/30 07:17:03;;;;;;;21.10;18.25;;;;;;;16.91;100.00;99378.53;1760257;80;20994;-84
2022/09/30 07:19:30;;;;;;;24.35;19.57;;;;;;;16.91;100.00;99369.83;1733357;81;21033;-83
2022/09/30 07:22:26;;;;;;;21.10;17.73;;;;;;;16.93;100.00;99370.87;1759566;80;21018;-82
2022/09/30 07:24:27;;;;;;;20.35;18.35;;;;;;;16.91;100.00;99372.55;1754361;81;21241;-81
2022/09/30 07:26:54;;;;;;;23.20;18.42;;;;;;;16.89;100.00;99371.22;1726465;81;20987;-83
2022/09/30 07:29:21;;;;;;;19.65;16.35;;;;;;;16.87;100.00;99370.73;1753446;80;21605;-86
2022/09/30 07:31:50;;;;;;;17.80;15.90;;;;;;;16.85;100.00;99374.28;1730067;81;20973;-81
2022/09/30 07:34:16;;;;;;;22.37;18.00;;;;;;;16.81;100.00;99379.52;1757355;80;21018;-80
2022/09/30 07:36:45;;;;;;;20.80;17.25;;;;;;;16.78;100.00;99381.48;1754275;80;21507;-84
2022/09/30 07:39:11;;;;;;;21.02;18.75;;;;;;;16.78;100.00;99387.45;1753165;81;21027;-81
2022/09/30 07:41:38;;;;;;;24.63;17.25;;;;;;;16.78;100.00;99390.17;1753595;81;20978;-81
2022/09/30 07:44:11;;;;;;;23.50;20.37;;;;;;;16.75;100.00;99390.75;1753448;81;21049;-82
2022/09/30 07:46:39;;;;;;;21.37;17.37;;;;;;;16.74;100.00;99390.52;1762720;80;21082;-80
2022/09/30 07:49:23;;;;;;;21.27;19.00;;;;;;;16.75;100.00;99392.91;1757700;80;20982;-81
2022/09/30 07:51:44;;;;;;;27.58;24.72;;;;;;;16.76;100.00;99398.61;1760601;80;21589;-83
2022/09/30 07:54:16;;;;;;;23.57;19.00;;;;;;;16.85;100.00;99401.45;1760459;80;20988;-80
2022/09/30 07:56:44;;;;;;;28.12;18.00;;;;;;;16.92;100.00;99397.80;1784050;79;21013;-81
2022/09/30 07:59:13;;;;;;;20.37;18.25;;;;;;;16.97;100.00;99399.89;1798534;78;21031;-85
2022/09/30 08:01:40;;;;;;;23.90;16.57;;;;;;;17.03;100.00;99404.66;1785609;80;21120;-84
2022/09/30 08:04:10;;;;;;;21.17;17.90;;;;;;;17.07;100.00;99407.05;1776357;78;21709;-81
2022/09/30 08:06:50;;;;;;;18.57;16.25;;;;;;;17.08;100.00;99410.55;1824864;78;21467;-82
2022/09/30 08:09:18;;;;;;;22.32;19.87;;;;;;;17.06;100.00;99413.58;1823593;78;21472;-83
2022/09/30 08:11:46;;;;;;;19.27;17.20;;;;;;;17.06;100.00;99418.20;1782706;80;21005;-86
2022/09/30 08:14:21;;;;;;;20.95;16.20;;;;;;;17.07;100.00;99413.84;1784391;78;21297;-84
2022/09/30 08:17:00;;;;;;;22.45;19.98;;;;;;;17.07;100.00;99412.48;1757392;80;20969;-86
2022/09/30 08:19:42;;;;;;;23.02;16.77;;;;;;;17.04;100.00;99425.84;1759682;78;21015;-86
2022/09/30 08:22:13;;;;;;;17.52;15.68;;;;;;;17.02;100.00;99422.08;1778107;78;20928;-87
2022/09/30 08:24:50;;;;;;;17.37;15.63;;;;;;;17.05;100.00;99425.55;1755792;78;21010;-83
2022/09/30 08:27:16;;;;;;;17.92;15.98;;;;;;;17.08;100.00;99427.66;1752364;78;21829;-87
2022/09/30 08:29:45;;;;;;;16.42;14.73;;;;;;;17.12;100.00;99431.38;1789104;78;22205;-84
2022/09/30 08:32:13;;;;;;;26.50;16.87;;;;;;;17.16;100.00;99428.90;1790345;78;20998;-87
2022/09/30 08:34:40;;;;;;;16.80;13.38;;;;;;;17.15;100.00;99424.56;1796352;78;20967;-85
2022/09/30 08:37:08;;;;;;;15.95;14.15;;;;;;;17.20;100.00;99425.28;1742161;79;20974;-86
2022/09/30 08:39:36;;;;;;;25.05;16.23;;;;;;;17.23;100.00;99428.75;1802510;78;21859;-84
2022/09/30 08:42:27;;;;;;;24.12;16.48;;;;;;;17.24;100.00;99431.73;1786303;80;20908;-87
2022/09/30 08:44:54;;;;;;;16.17;14.58;;;;;;;17.32;100.00;99432.38;1793975;78;21088;-77
2022/09/30 08:47:45;;;;;;;17.82;16.02;;;;;;;17.43;100.00;99430.28;1745940;78;21531;-78
2022/09/30 08:50:23;;;;;;;15.30;13.90;;;;;;;17.43;100.00;99432.45;1780670;78;21034;-76
2022/09/30 08:52:52;;;;;;;15.15;13.70;;;;;;;17.42;100.00;99430.84;1778673;80;21096;-78
2022/09/30 08:55:42;;;;;;;15.90;14.20;;;;;;;17.39;100.00;99430.64;1793362;78;20964;-88
2022/09/30 08:58:22;;;;;;;14.35;13.08;;;;;;;17.37;100.00;99436.91;1759766;78;21006;-78
2022/09/30 09:00:53;;;;;;;19.52;16.82;;;;;;;17.38;100.00;99441.25;1768682;80;21032;-75
2022/09/30 09:03:21;;;;;;;15.98;14.38;;;;;;;17.38;100.00;99437.98;1785356;78;21542;-77
2022/09/30 09:05:58;;;;;;;18.48;12.90;;;;;;;17.41;100.00;99443.36;1788920;80;22238;-78
2022/09/30 09:08:36;;;;;;;14.58;13.18;;;;;;;17.39;100.00;99451.03;1789137;80;21988;-75
2022/09/30 09:11:14;;;;;;;23.67;17.90;;;;;;;17.44;100.00;99442.78;1788812;80;20990;-76
2022/09/30 09:13:59;;;;;;;18.27;15.63;;;;;;;17.44;100.00;99451.74;1788811;80;20983;-77
2022/09/30 09:16:50;;;;;;;17.35;15.10;;;;;;;17.47;100.00;99450.33;1796377;78;20992;-82
2022/09/30 09:19:18;;;;;;;18.55;15.58;;;;;;;17.51;100.00;99443.17;1796142;78;21225;-78
2022/09/30 09:21:58;;;;;;;15.65;14.00;;;;;;;17.52;100.00;99451.59;1790349;78;21018;-78
2022/09/30 09:24:38;;;;;;;18.82;13.78;;;;;;;17.55;100.00;99455.09;1790239;78;20908;-78
2022/09/30 09:27:44;;;;;;;15.05;13.75;;;;;;;17.59;100.00;99457.48;1785548;78;20951;-80
2022/09/30 09:30:18;;;;;;;16.70;15.08;;;;;;;17.59;100.00;99460.20;1788810;78;21034;-80
2022/09/30 09:32:54;;;;;;;16.67;14.95;;;;;;;17.55;100.00;99465.16;1789655;78;21098;-79
2022/09/30 09:36:06;;;;;;;17.98;15.58;;;;;;;17.58;100.00;99467.26;1761298;80;21025;-76
2022/09/30 09:38:43;;;;;;;16.85;15.15;;;;;;;17.63;100.00;99461.75;1780804;78;21003;-72
2022/09/30 09:41:37;;;;;;;15.70;14.20;;;;;;;17.73;100.00;99469.17;1780342;78;21026;-72
2022/09/30 09:44:22;;;;;;;16.90;15.00;;;;;;;17.79;100.00;99477.46;1774591;78;21092;-71
2022/09/30 09:47:15;;;;;;;20.70;15.40;;;;;;;17.78;100.00;99470.98;1772594;78;22068;-78
2022/09/30 09:49:48;;;;;;;17.45;15.75;;;;;;;17.80;100.00;99472.27;1789718;78;20915;-73
2022/09/30 09:52:27;;;;;;;15.53;14.03;;;;;;;17.90;100.00;99479.98;1789453;80;25962;-73
2022/09/30 09:54:57;;;;;;;18.35;16.55;;;;;;;18.05;99.62;99476.95;1787977;78;21022;-73
2022/09/30 09:57:26;;;;;;;16.20;14.70;;;;;;;18.05;98.06;99476.95;1789386;78;21081;-74
2022/09/30 10:03:20;;;;;;;17.50;15.30;;;;;;;18.02;97.80;99478.38;1788644;78;20989;-80
2022/09/30 10:06:03;;;;;;;19.40;15.13;;;;;;;18.08;97.64;99482.58;1783625;78;20949;-78
2022/09/30 10:08:38;;;;;;;18.90;16.48;;;;;;;18.17;97.73;99479.98;1779876;78;20994;-84
2022/09/30 10:11:22;;;;;;;18.15;16.45;;;;;;;18.33;97.58;99476.34;1795423;78;21007;-82
2022/09/30 10:13:50;;;;;;;20.85;16.75;;;;;;;18.47;96.44;99483.37;1799254;78;21259;-81
2022/09/30 10:16:32;;;;;;;18.25;16.42;;;;;;;18.57;95.37;99479.09;1796864;78;21210;-79
2022/09/30 10:18:59;;;;;;;18.02;16.20;;;;;;;18.59;94.29;99479.60;1761069;80;20961;-78
2022/09/30 10:21:28;;;;;;;16.50;14.78;;;;;;;18.55;93.28;99485.42;1787203;80;20983;-78
2022/09/30 10:23:56;;;;;;;19.27;15.83;;;;;;;18.53;93.30;99488.99;1784993;80;21075;-77
2022/09/30 10:26:27;;;;;;;17.48;15.88;;;;;;;18.53;93.25;99491.72;1757702;80;21134;-76
2022/09/30 10:28:59;;;;;;;18.87;17.10;;;;;;;18.53;93.38;99488.16;1794341;78;20927;-79
2022/09/30 10:31:33;;;;;;;23.22;17.55;;;;;;;18.51;93.56;99493.12;1788736;80;21550;-77
2022/09/30 10:34:33;;;;;;;18.05;16.23;;;;;;;18.50;93.69;99492.31;1800926;78;20955;-76
2022/09/30 10:37:09;;;;;;;17.87;15.80;;;;;;;18.50;93.35;99488.22;1792457;78;20991;-76
2022/09/30 10:39:39;;;;;;;17.23;15.58;;;;;;;18.50;93.79;99485.50;1793017;78;21509;-75
2022/09/30 10:42:11;;;;;;;25.52;18.62;;;;;;;18.57;93.97;99495.98;1788594;78;20970;-78
2022/09/30 10:45:09;;;;;;;20.27;18.10;;;;;;;18.69;93.84;99490.82;1784544;79;21026;-81
2022/09/30 10:47:43;;;;;;;22.77;18.20;;;;;;;18.80;92.99;99500.93;1783423;80;21062;-74
2022/09/30 10:50:16;;;;;;;19.85;17.87;;;;;;;18.87;92.38;99493.11;1783433;80;21551;-73
2022/09/30 10:53:14;;;;;;;22.53;19.10;;;;;;;18.95;92.21;99490.45;1784161;78;21285;-74
2022/09/30 10:55:42;;;;;;;29.77;17.30;;;;;;;19.08;91.49;99495.05;1751355;78;21062;-71
2022/09/30 10:58:29;;;;;;;18.57;16.73;;;;;;;19.15;90.30;99495.96;1759518;80;20985;-76
2022/09/30 11:01:01;;;;;;;41.92;33.58;;;;;;;19.18;90.54;99493.99;1790423;78;21096;-78
2022/09/30 11:04:00;;;;;;;21.35;19.35;;;;;;;19.27;90.07;99493.48;1809647;78;21043;-78
2022/09/30 11:06:30;;;;;;;22.00;18.87;;;;;;;19.40;89.31;99491.78;1792084;78;21140;-78
2022/09/30 11:09:13;;;;;;;19.05;17.12;;;;;;;19.38;88.43;99490.72;1813313;78;21011;-80
2022/09/30 11:11:54;;;;;;;27.62;17.27;;;;;;;19.37;88.50;99491.05;1816704;78;21538;-80
2022/09/30 11:14:51;;;;;;;21.82;18.55;;;;;;;19.43;88.21;99493.88;1784187;80;21082;-75
2022/09/30 11:17:48;;;;;;;20.65;18.55;;;;;;;19.48;88.00;99499.23;1785095;78;21014;-76
2022/09/30 11:20:29;;;;;;;25.05;17.62;;;;;;;19.54;87.62;99497.98;1794629;78;21832;-79
2022/09/30 11:23:19;;;;;;;24.82;18.02;;;;;;;19.65;87.41;99505.34;1822560;78;20951;-86
2022/09/30 11:25:59;;;;;;;19.73;17.42;;;;;;;19.73;86.97;99509.47;1813198;78;21023;-79
2022/09/30 11:28:38;;;;;;;16.97;15.13;;;;;;;19.89;86.31;99518.05;1788430;78;21028;-74
2022/09/30 11:31:23;;;;;;;19.70;16.67;;;;;;;19.91;85.46;99514.43;1746620;81;21082;-75
2022/09/30 11:34:17;;;;;;;17.62;15.65;;;;;;;19.87;85.22;99518.36;1710787;80;21650;-73
2022/09/30 11:37:32;;;;;;;18.70;16.73;;;;;;;19.91;85.27;99523.42;1723394;83;22156;-79
2022/09/30 11:40:32;;;;;;;24.32;18.57;;;;;;;19.93;85.37;99525.84;1724072;80;21029;-77
2022/09/30 11:43:21;;;;;;;19.57;17.73;;;;;;;19.95;85.42;99525.77;1747101;81;21618;-80
2022/09/30 11:46:17;;;;;;;23.45;18.92;;;;;;;20.01;84.99;99524.52;1753398;81;21006;-71
2022/09/30 11:48:59;;;;;;;27.37;18.62;;;;;;;19.97;84.44;99527.63;1750891;81;21257;-83
2022/09/30 11:52:03;;;;;;;20.10;17.70;;;;;;;19.89;85.49;99535.23;1733782;82;21055;-82
2022/09/30 11:55:22;;;;;;;20.80;16.15;;;;;;;19.92;85.45;99526.96;1688741;83;21085;-77
2022/09/30 11:58:00;;;;;;;19.85;17.77;;;;;;;20.03;84.79;99531.84;1719468;81;21013;-76
2022/09/30 12:00:28;;;;;;;19.42;17.52;;;;;;;20.05;84.54;99530.13;1713826;83;21077;-79
2022/09/30 12:03:08;;;;;;;19.60;17.30;;;;;;;20.06;84.50;99526.84;1739269;81;21736;-74
2022/09/30 12:05:50;;;;;;;20.75;18.37;;;;;;;20.10;84.01;99526.45;1707941;84;21084;-76
2022/09/30 12:08:33;;;;;;;19.30;17.10;;;;;;;20.12;83.74;99527.77;1729652;81;21028;-79
2022/09/30 12:11:05;;;;;;;19.75;17.40;;;;;;;20.19;83.49;99534.91;1718549;81;21576;-81